createdAt,value
2023-05-05T00:01:59.276Z,100477.09
2023-05-05T00:04:27.267Z,100475.72
2023-05-05T00:06:55.248Z,100442.97
2023-05-05T00:09:24.481Z,100444.38
2023-05-05T00:11:52.325Z,100471.47
2023-05-05T00:14:20.261Z,100462.59
2023-05-05T00:16:48.204Z,100459.56
2023-05-05T00:19:16.035Z,100466.88
2023-05-05T00:21:44.001Z,100456.31
2023-05-05T00:24:11.968Z,100456.28
2023-05-05T00:26:41.137Z,100439.53
2023-05-05T00:29:09.069Z,100446.59
2023-05-05T00:31:37.747Z,100444.06
2023-05-05T00:34:06.347Z,100449.22
2023-05-05T00:36:34.364Z,100442.78
2023-05-05T00:39:02.262Z,100444.44
2023-05-05T00:41:30.209Z,100442.22
2023-05-05T00:43:59.855Z,100442.97
2023-05-05T00:46:30.490Z,100436.50
2023-05-05T00:48:59.751Z,100427.06
2023-05-05T00:51:29.226Z,100435.44
2023-05-05T00:53:57.185Z,100369.72
2023-05-05T00:56:27.330Z,100400.34
2023-05-05T00:58:55.370Z,100428.16
2023-05-05T01:01:24.640Z,100428.03
2023-05-05T01:03:52.571Z,100358.41
2023-05-05T01:06:36.571Z,100385.56
2023-05-05T01:09:14.009Z,100408.13
2023-05-05T01:11:50.699Z,100387.31
2023-05-05T01:14:23.914Z,100407.25
2023-05-05T01:16:59.209Z,100364.25
2023-05-05T01:19:52.848Z,100408.13
2023-05-05T01:22:24.079Z,100409.28
2023-05-05T01:25:30.812Z,100399.72
2023-05-05T01:28:12.295Z,100407.91
2023-05-05T01:30:59.265Z,100404.28
2023-05-05T01:33:32.554Z,100396.16
2023-05-05T01:36:08.303Z,100397.09
2023-05-05T01:38:41.730Z,100332.31
2023-05-05T01:41:14.750Z,100384.72
2023-05-05T01:43:47.035Z,100392.41
2023-05-05T01:46:17.040Z,100395.06
2023-05-05T01:48:49.219Z,100395.81
2023-05-05T01:51:18.604Z,100391.53
2023-05-05T01:53:47.221Z,100385.63
2023-05-05T01:56:16.782Z,100382.22
2023-05-05T01:58:46.644Z,100384.25
2023-05-05T02:01:16.313Z,100392.38
2023-05-05T02:03:47.346Z,100377.50
2023-05-05T02:06:17.377Z,100375.84
2023-05-05T02:08:46.874Z,100377.72
2023-05-05T02:11:15.797Z,100365.47
2023-05-05T02:13:45.445Z,100372.41
2023-05-05T02:16:18.315Z,100364.97
2023-05-05T02:18:49.292Z,100368.16
2023-05-05T02:21:18.608Z,100365.63
2023-05-05T02:23:51.530Z,100375.09
2023-05-05T02:26:22.194Z,100368.75
2023-05-05T02:28:55.461Z,100370.66
2023-05-05T02:31:27.212Z,100367.03
2023-05-05T02:33:59.032Z,100367.78
2023-05-05T02:36:30.729Z,100368.53
2023-05-05T02:39:04.734Z,100354.38
2023-05-05T02:41:39.894Z,100362.88
2023-05-05T02:44:16.570Z,100363.66
2023-05-05T02:46:45.158Z,100369.44
2023-05-05T02:49:15.886Z,100264.63
2023-05-05T02:51:44.540Z,100368.50
2023-05-05T02:54:21.083Z,100365.94
2023-05-05T02:56:51.276Z,100364.09
2023-05-05T02:59:25.795Z,100371.06
2023-05-05T03:02:07.613Z,100363.97
2023-05-05T03:04:41.354Z,100364.34
2023-05-05T03:07:14.413Z,100360.91
2023-05-05T03:09:52.703Z,100358.31
2023-05-05T03:12:23.506Z,100356.25
2023-05-05T03:15:03.080Z,100343.25
2023-05-05T03:17:33.783Z,100346.69
2023-05-05T03:20:04.372Z,100351.84
2023-05-05T03:22:37.143Z,100349.06
2023-05-05T03:25:07.577Z,100345.66
2023-05-05T03:27:35.397Z,100349.47
2023-05-05T03:30:03.828Z,100349.06
2023-05-05T03:32:35.723Z,100352.75
2023-05-05T03:35:05.561Z,100347.41
2023-05-05T03:37:35.041Z,100347.38
2023-05-05T03:40:03.001Z,100346.38
2023-05-05T03:42:32.249Z,100357.91
2023-05-05T03:45:00.191Z,100352.03
2023-05-05T03:47:28.729Z,100352.97
2023-05-05T03:49:57.902Z,100351.53
2023-05-05T03:52:27.763Z,100322.66
2023-05-05T03:54:56.259Z,100333.06
2023-05-05T03:57:24.247Z,100342.28
2023-05-05T03:59:52.193Z,100341.28
2023-05-05T04:02:20.140Z,100347.41
2023-05-05T04:04:48.664Z,100317.63
2023-05-05T04:07:16.474Z,100350.72
2023-05-05T04:09:46.292Z,100348.75
2023-05-05T04:12:14.325Z,100359.19
2023-05-05T04:14:42.162Z,100355.53
2023-05-05T04:17:11.666Z,100354.72
2023-05-05T04:19:39.504Z,100361.69
2023-05-05T04:22:08.656Z,100367.41
2023-05-05T04:24:37.402Z,100304.28
2023-05-05T04:27:07.064Z,100360.13
2023-05-05T04:29:35.297Z,100360.88
2023-05-05T04:32:03.162Z,100369.13
2023-05-05T04:34:32.164Z,100299.72
2023-05-05T04:37:00.908Z,100380.09
2023-05-05T04:39:28.862Z,100369.44
2023-05-05T04:41:56.785Z,100366.28
2023-05-05T04:44:26.781Z,100372.41
2023-05-05T04:46:55.093Z,100378.78
2023-05-05T04:49:23.038Z,100379.94
2023-05-05T04:51:51.145Z,100380.81
2023-05-05T04:54:18.912Z,100365.28
2023-05-05T04:56:47.062Z,100389.34
2023-05-05T04:59:15.148Z,100385.38
2023-05-05T05:01:44.537Z,100385.22
2023-05-05T05:04:12.847Z,100361.00
2023-05-05T05:06:40.754Z,100350.44
2023-05-05T05:09:08.521Z,100373.91
2023-05-05T05:11:36.414Z,100374.78
2023-05-05T05:14:04.376Z,100375.41
2023-05-05T05:16:32.214Z,100369.81
2023-05-05T05:19:02.019Z,100367.56
2023-05-05T05:21:31.704Z,100371.78
2023-05-05T05:24:00.164Z,100369.22
2023-05-05T05:26:28.545Z,100371.19
2023-05-05T05:28:56.511Z,100362.69
2023-05-05T05:31:25.586Z,100377.69
2023-05-05T05:33:53.728Z,100344.81
2023-05-05T05:36:23.139Z,100347.16
2023-05-05T05:38:51.309Z,100382.75
2023-05-05T05:41:19.356Z,100384.13
2023-05-05T05:43:47.136Z,100381.28
2023-05-05T05:46:15.519Z,100376.72
2023-05-05T05:48:44.124Z,100359.56
2023-05-05T05:51:11.909Z,100380.81
2023-05-05T05:53:41.285Z,100385.91
2023-05-05T05:56:10.835Z,100383.00
2023-05-05T05:58:39.017Z,100386.56
2023-05-05T06:01:07.268Z,100384.44
2023-05-05T06:03:35.286Z,100389.50
2023-05-05T06:06:03.374Z,100387.88
2023-05-05T06:08:31.391Z,100374.56
2023-05-05T06:11:01.145Z,100389.94
2023-05-05T06:13:29.037Z,100374.78
2023-05-05T06:15:56.845Z,100349.38
2023-05-05T06:18:24.932Z,100372.75
2023-05-05T06:20:52.923Z,100404.84
2023-05-05T06:23:23.861Z,100404.22
2023-05-05T06:25:57.249Z,100398.41
2023-05-05T06:28:26.525Z,100394.59
2023-05-05T06:30:54.292Z,100390.63
2023-05-05T06:33:22.187Z,100389.47
2023-05-05T06:35:50.061Z,100388.44
2023-05-05T06:38:17.889Z,100384.44
2023-05-05T06:40:45.624Z,100388.56
2023-05-05T06:43:13.387Z,100375.09
2023-05-05T06:45:48.040Z,100350.53
2023-05-05T06:48:15.971Z,100349.22
2023-05-05T06:50:43.811Z,100367.38
2023-05-05T06:53:11.700Z,100362.44
2023-05-05T06:55:39.640Z,100320.31
2023-05-05T06:58:07.430Z,100350.72
2023-05-05T07:00:35.465Z,100325.13
2023-05-05T07:03:04.835Z,100348.66
2023-05-05T07:05:32.821Z,100337.84
2023-05-05T07:08:00.728Z,100364.09
2023-05-05T07:10:28.819Z,100370.25
2023-05-05T07:12:56.719Z,100379.44
2023-05-05T07:15:29.211Z,100369.75
2023-05-05T07:17:57.756Z,100367.94
2023-05-05T07:20:27.601Z,100369.41
2023-05-05T07:22:55.473Z,100364.53
2023-05-05T07:25:23.298Z,100382.41
2023-05-05T07:27:51.401Z,100383.00
2023-05-05T07:30:19.848Z,100381.50
2023-05-05T07:32:48.081Z,100290.84
2023-05-05T07:35:16.186Z,100409.28
2023-05-05T07:37:45.752Z,100402.66
2023-05-05T07:40:14.193Z,100398.94
2023-05-05T07:42:42.254Z,100388.03
2023-05-05T07:45:10.579Z,100386.72
2023-05-05T07:47:38.406Z,100410.59
2023-05-05T07:50:07.742Z,100420.09
2023-05-05T07:52:46.894Z,100412.16
2023-05-05T07:55:21.147Z,100417.09
2023-05-05T07:57:49.678Z,100398.66
2023-05-05T08:00:19.367Z,100446.31
2023-05-05T08:02:48.097Z,100440.47
2023-05-05T08:05:16.488Z,100448.38
2023-05-05T08:07:44.449Z,100444.22
2023-05-05T08:10:12.768Z,100452.44
2023-05-05T08:12:42.080Z,100460.41
2023-05-05T08:15:10.603Z,100467.03
2023-05-05T08:17:46.794Z,100457.09
2023-05-05T08:20:14.733Z,100453.66
2023-05-05T08:22:43.327Z,100454.69
2023-05-05T08:25:12.980Z,100435.31
2023-05-05T08:27:43.345Z,100417.16
2023-05-05T08:30:11.866Z,100415.63
2023-05-05T08:32:39.922Z,100405.81
2023-05-05T08:35:08.699Z,100418.63
2023-05-05T08:37:36.924Z,100429.69
2023-05-05T08:40:05.604Z,100425.06
2023-05-05T08:42:38.705Z,100427.84
2023-05-05T08:45:11.217Z,100401.94
2023-05-05T08:47:40.309Z,100419.53
2023-05-05T08:50:11.208Z,100438.16
2023-05-05T08:52:41.272Z,100432.69
2023-05-05T08:55:15.733Z,100427.34
2023-05-05T08:57:51.580Z,100443.22
2023-05-05T09:00:22.412Z,100450.00
2023-05-05T09:02:50.771Z,100460.31
2023-05-05T09:05:19.265Z,100446.13
2023-05-05T09:07:47.938Z,100405.97
2023-05-05T09:10:15.795Z,100449.44
2023-05-05T09:12:44.118Z,100445.16
2023-05-05T09:15:14.319Z,100446.13
2023-05-05T09:17:43.813Z,100441.00
2023-05-05T09:20:12.762Z,100451.13
2023-05-05T09:22:41.922Z,100453.19
2023-05-05T09:25:11.946Z,100434.38
2023-05-05T09:27:41.957Z,100458.06
2023-05-05T09:30:11.105Z,100457.03
2023-05-05T09:32:49.196Z,100457.59
2023-05-05T09:35:17.716Z,100442.31
2023-05-05T09:37:46.001Z,100459.34
2023-05-05T09:40:15.775Z,100461.31
2023-05-05T09:42:44.587Z,100460.63
2023-05-05T09:45:27.873Z,100468.88
2023-05-05T09:48:00.111Z,100474.25
2023-05-05T09:50:30.428Z,100469.13
2023-05-05T09:52:58.581Z,100460.69
2023-05-05T09:55:26.533Z,100463.38
2023-05-05T09:57:54.545Z,100461.22
2023-05-05T10:00:22.584Z,100461.41
2023-05-05T10:02:51.053Z,100447.91
2023-05-05T10:05:20.265Z,100445.19
2023-05-05T10:07:48.935Z,100461.66
2023-05-05T10:10:18.438Z,100460.41
2023-05-05T10:12:47.541Z,100451.56
2023-05-05T10:15:17.000Z,100459.25
2023-05-05T10:18:05.322Z,100454.19
2023-05-05T10:20:37.450Z,100461.75
2023-05-05T10:23:07.498Z,100459.28
2023-05-05T10:25:40.307Z,100461.59
2023-05-05T10:28:11.295Z,100438.78
2023-05-05T10:30:44.237Z,100469.00
2023-05-05T10:33:30.328Z,100460.75
2023-05-05T10:36:03.208Z,100452.03
2023-05-05T10:38:32.657Z,100457.41
2023-05-05T10:41:02.002Z,100419.56
2023-05-05T10:43:31.993Z,100460.44
2023-05-05T10:46:01.142Z,100417.47
2023-05-05T10:48:36.850Z,100430.56
2023-05-05T10:51:27.429Z,100449.38
2023-05-05T10:54:12.460Z,100447.91
2023-05-05T10:56:42.171Z,100453.88
2023-05-05T10:59:42.875Z,100449.75
2023-05-05T11:02:25.619Z,100447.59
2023-05-05T11:05:08.571Z,100444.34
2023-05-05T11:07:38.305Z,100434.13
2023-05-05T11:10:08.001Z,100437.91
2023-05-05T11:13:22.572Z,100429.19
2023-05-05T11:15:52.115Z,100404.25
2023-05-05T11:18:37.131Z,100406.34
2023-05-05T11:21:15.397Z,100424.13
2023-05-05T11:23:45.905Z,100405.38
2023-05-05T11:26:13.820Z,100414.00
2023-05-05T11:29:01.284Z,100339.28
2023-05-05T11:31:30.652Z,100422.84
2023-05-05T11:34:27.048Z,100407.66
2023-05-05T11:36:58.613Z,100414.53
2023-05-05T11:39:39.837Z,100411.81
2023-05-05T11:42:34.901Z,100412.28
2023-05-05T11:45:21.229Z,100415.06
2023-05-05T11:47:49.132Z,100416.06
2023-05-05T11:50:19.094Z,100416.00
2023-05-05T11:52:48.246Z,100416.28
2023-05-05T11:55:22.455Z,100380.09
2023-05-05T11:57:50.484Z,100416.75
2023-05-05T12:00:20.606Z,100413.34
2023-05-05T12:02:56.602Z,100413.56
2023-05-05T12:05:24.919Z,100395.91
2023-05-05T12:07:57.553Z,100404.00
2023-05-05T12:10:25.636Z,100402.56
2023-05-05T12:12:55.566Z,100377.94
2023-05-05T12:15:32.218Z,100387.84
2023-05-05T12:18:02.748Z,100375.97
2023-05-05T12:20:32.215Z,100389.69
2023-05-05T12:23:04.566Z,100390.81
2023-05-05T12:25:38.174Z,100327.94
2023-05-05T12:28:07.382Z,100368.53
2023-05-05T12:30:36.966Z,100379.50
2023-05-05T12:33:06.177Z,100374.50
2023-05-05T12:35:34.623Z,100366.28
2023-05-05T12:38:02.510Z,100363.03
2023-05-05T12:40:44.648Z,100257.91
2023-05-05T12:43:25.024Z,100360.34
2023-05-05T12:46:04.779Z,100355.13
2023-05-05T12:48:33.206Z,100346.69
2023-05-05T12:51:20.950Z,100355.69
2023-05-05T12:53:50.486Z,100340.59
2023-05-05T12:56:31.665Z,100339.53
2023-05-05T12:58:59.763Z,100317.13
2023-05-05T13:01:29.198Z,100343.19
2023-05-05T13:04:10.839Z,100337.50
2023-05-05T13:06:39.833Z,100339.38
2023-05-05T13:09:08.985Z,100319.66
2023-05-05T13:11:38.259Z,100306.69
2023-05-05T13:14:07.072Z,100313.78
2023-05-05T13:16:36.357Z,100308.81
2023-05-05T13:19:04.251Z,100282.59
2023-05-05T13:21:32.166Z,100286.34
2023-05-05T13:24:18.375Z,100290.09
2023-05-05T13:26:48.502Z,100296.41
2023-05-05T13:29:16.511Z,100276.50
2023-05-05T13:31:46.518Z,100297.38
2023-05-05T13:34:14.294Z,100302.06
2023-05-05T13:36:42.466Z,100298.38
2023-05-05T13:39:10.585Z,100294.00
2023-05-05T13:41:38.436Z,100275.94
2023-05-05T13:44:06.310Z,100278.56
2023-05-05T13:46:34.150Z,100300.69
2023-05-05T13:49:03.456Z,100306.88
2023-05-05T13:51:31.342Z,100298.69
2023-05-05T13:53:59.234Z,100284.69
2023-05-05T13:56:27.792Z,100283.38
2023-05-05T13:58:55.800Z,100284.97
2023-05-05T14:01:23.778Z,100305.25
2023-05-05T14:03:51.645Z,100327.69
2023-05-05T14:06:20.843Z,100335.16
2023-05-05T14:08:48.868Z,100335.16
2023-05-05T14:11:18.288Z,100292.53
2023-05-05T14:13:47.556Z,100332.88
2023-05-05T14:16:15.534Z,100345.78
2023-05-05T14:18:43.636Z,100362.88
2023-05-05T14:21:14.235Z,100269.88
2023-05-05T14:23:43.453Z,100264.63
2023-05-05T14:26:11.394Z,100304.28
2023-05-05T14:28:39.288Z,100313.41
2023-05-05T14:31:07.064Z,100325.53
2023-05-05T14:33:34.849Z,100311.31
2023-05-05T14:36:02.804Z,100319.16
2023-05-05T14:38:30.580Z,100308.75
2023-05-05T14:40:59.723Z,100307.81
2023-05-05T14:43:27.594Z,100306.94
2023-05-05T14:45:55.807Z,100292.94
2023-05-05T14:48:23.609Z,100280.47
2023-05-05T14:50:51.493Z,100303.97
2023-05-05T14:53:19.997Z,100315.28
2023-05-05T14:55:47.882Z,100293.06
2023-05-05T14:58:18.658Z,100317.69
2023-05-05T15:00:46.485Z,100331.00
2023-05-05T15:03:14.424Z,100348.94
2023-05-05T15:05:42.374Z,100290.00
2023-05-05T15:08:10.223Z,100347.75
2023-05-05T15:10:37.958Z,100366.50
2023-05-05T15:13:05.959Z,100373.44
2023-05-05T15:15:35.227Z,100382.00
2023-05-05T15:18:03.106Z,100373.13
2023-05-05T15:20:31.519Z,100404.38
2023-05-05T15:22:59.333Z,100419.69
2023-05-05T15:25:27.302Z,100425.72
2023-05-05T15:27:55.205Z,100430.25
2023-05-05T15:30:23.295Z,100431.75
2023-05-05T15:32:52.565Z,100430.13
2023-05-05T15:35:20.798Z,100366.81
2023-05-05T15:37:48.738Z,100409.97
2023-05-05T15:40:16.674Z,100426.16
2023-05-05T15:42:44.422Z,100423.53
2023-05-05T15:45:13.077Z,100423.38
2023-05-05T15:47:41.037Z,100430.72
2023-05-05T15:50:11.138Z,100437.34
2023-05-05T15:52:38.972Z,100419.13
2023-05-05T15:55:07.930Z,100399.63
2023-05-05T15:57:36.342Z,100408.25
2023-05-05T16:00:04.689Z,100420.44
2023-05-05T16:02:35.304Z,100408.94
2023-05-05T16:05:03.375Z,100409.78
2023-05-05T16:07:32.739Z,100425.75
2023-05-05T16:10:00.614Z,100414.69
2023-05-05T16:12:28.467Z,100386.72
2023-05-05T16:14:56.651Z,100394.28
2023-05-05T16:17:24.474Z,100402.63
2023-05-05T16:19:52.386Z,100376.19
2023-05-05T16:22:20.914Z,100401.06
2023-05-05T16:24:50.233Z,100358.53
2023-05-05T16:27:18.053Z,100399.56
2023-05-05T16:29:45.813Z,100353.53
2023-05-05T16:32:13.766Z,100372.16
2023-05-05T16:34:41.531Z,100386.63
2023-05-05T16:37:09.827Z,100386.09
2023-05-05T16:39:40.223Z,100357.34
2023-05-05T16:42:09.622Z,100364.66
2023-05-05T16:44:37.448Z,100374.59
2023-05-05T16:47:05.428Z,100382.06
2023-05-05T16:49:33.229Z,100384.78
2023-05-05T16:52:01.201Z,100361.00
2023-05-05T16:54:30.802Z,100377.72
2023-05-05T16:56:58.634Z,100385.19
2023-05-05T16:59:28.805Z,100380.47
2023-05-05T17:01:58.253Z,100377.84
2023-05-05T17:04:26.242Z,100374.75
2023-05-05T17:06:54.883Z,100379.78
2023-05-05T17:09:24.803Z,100373.78
2023-05-05T17:11:52.932Z,100371.06
2023-05-05T17:14:20.832Z,100364.81
2023-05-05T17:16:50.091Z,100363.56
2023-05-05T17:19:17.958Z,100369.66
2023-05-05T17:21:45.744Z,100361.25
2023-05-05T17:24:13.550Z,100364.75
2023-05-05T17:26:41.501Z,100354.66
2023-05-05T17:29:11.532Z,100356.50
2023-05-05T17:31:41.784Z,100377.66
2023-05-05T17:34:11.267Z,100330.00
2023-05-05T17:36:39.189Z,100371.28
2023-05-05T17:39:07.597Z,100364.50
2023-05-05T17:41:35.466Z,100375.97
2023-05-05T17:44:03.358Z,100371.34
2023-05-05T17:46:31.200Z,100369.47
2023-05-05T17:48:58.980Z,100362.31
2023-05-05T17:51:28.588Z,100371.47
2023-05-05T17:53:56.470Z,100358.91
2023-05-05T17:56:24.552Z,100365.09
2023-05-05T17:58:52.470Z,100365.47
2023-05-05T18:01:23.809Z,100354.09
2023-05-05T18:03:51.933Z,100364.09
2023-05-05T18:06:20.052Z,100276.88
2023-05-05T18:08:49.329Z,100278.00
2023-05-05T18:11:17.181Z,100384.44
2023-05-05T18:13:45.153Z,100236.47
2023-05-05T18:16:13.014Z,100310.91
2023-05-05T18:18:41.659Z,100386.47
2023-05-05T18:21:12.121Z,100355.28
2023-05-05T18:23:40.478Z,100379.16
2023-05-05T18:26:09.957Z,100390.41
2023-05-05T18:28:38.124Z,100387.09
2023-05-05T18:31:06.166Z,100394.59
2023-05-05T18:33:34.063Z,100397.34
2023-05-05T18:36:03.362Z,100365.34
2023-05-05T18:38:32.457Z,100398.69
2023-05-05T18:41:00.361Z,100403.13
2023-05-05T18:43:29.600Z,100405.81
2023-05-05T18:45:57.393Z,100344.16
2023-05-05T18:48:26.184Z,100409.50
2023-05-05T18:50:54.024Z,100380.91
2023-05-05T18:53:22.269Z,100418.69
2023-05-05T18:55:50.136Z,100426.97
2023-05-05T18:58:18.386Z,100429.75
2023-05-05T19:00:47.974Z,100425.31
2023-05-05T19:03:16.293Z,100438.38
2023-05-05T19:05:44.151Z,100423.00
2023-05-05T19:08:12.293Z,100433.66
2023-05-05T19:10:40.141Z,100438.34
2023-05-05T19:13:07.938Z,100437.31
2023-05-05T19:15:35.991Z,100440.97
2023-05-05T19:18:06.462Z,100445.75
2023-05-05T19:20:34.325Z,100439.44
2023-05-05T19:23:04.780Z,100440.97
2023-05-05T19:25:32.628Z,100444.91
2023-05-05T19:28:00.567Z,100430.34
2023-05-05T19:30:28.588Z,100443.06
2023-05-05T19:32:56.716Z,100444.00
2023-05-05T19:35:26.128Z,100454.78
2023-05-05T19:37:53.953Z,100451.16
2023-05-05T19:40:21.860Z,100457.41
2023-05-05T19:42:49.763Z,100435.63
2023-05-05T19:45:17.861Z,100437.78
2023-05-05T19:47:46.207Z,100442.84
2023-05-05T19:50:15.941Z,100450.84
2023-05-05T19:52:45.269Z,100453.09
2023-05-05T19:55:13.805Z,100420.00
2023-05-05T19:57:41.813Z,100435.81
2023-05-05T20:00:11.725Z,100387.63
2023-05-05T20:02:39.732Z,100429.00
2023-05-05T20:05:08.320Z,100446.59
2023-05-05T20:07:36.192Z,100441.69
2023-05-05T20:10:06.253Z,100438.50
2023-05-05T20:12:34.237Z,100435.03
2023-05-05T20:15:02.054Z,100432.19
2023-05-05T20:17:29.865Z,100420.16
2023-05-05T20:19:57.963Z,100373.69
2023-05-05T20:22:26.956Z,100395.50
2023-05-05T20:24:54.795Z,100416.25
2023-05-05T20:27:25.361Z,100408.78
2023-05-05T20:29:54.597Z,100366.09
2023-05-05T20:32:22.587Z,100379.78
2023-05-05T20:34:50.431Z,100396.28
2023-05-05T20:37:18.263Z,100389.94
2023-05-05T20:39:47.329Z,100350.25
2023-05-05T20:42:15.257Z,100380.66
2023-05-05T20:44:44.548Z,100381.22
2023-05-05T20:47:12.482Z,100307.00
2023-05-05T20:49:40.586Z,100385.25
2023-05-05T20:52:08.374Z,100388.03
2023-05-05T20:54:36.242Z,100388.84
2023-05-05T20:57:04.321Z,100387.19
2023-05-05T20:59:32.460Z,100388.59
2023-05-05T21:02:02.060Z,100377.81
2023-05-05T21:04:30.146Z,100395.91
2023-05-05T21:06:58.393Z,100395.13
2023-05-05T21:09:26.933Z,100389.47
2023-05-05T21:11:54.993Z,100374.47
2023-05-05T21:14:23.408Z,100382.88
2023-05-05T21:16:52.048Z,100383.69
2023-05-05T21:19:21.655Z,100376.41
2023-05-05T21:21:49.493Z,100381.78
2023-05-05T21:24:17.370Z,100378.94
2023-05-05T21:26:45.863Z,100385.66
2023-05-05T21:29:14.014Z,100384.75
2023-05-05T21:31:41.942Z,100390.44
2023-05-05T21:34:09.770Z,100387.03
2023-05-05T21:36:39.864Z,100378.63
2023-05-05T21:39:07.760Z,100385.50
2023-05-05T21:41:35.960Z,100359.53
2023-05-05T21:44:04.274Z,100392.81
2023-05-05T21:46:32.158Z,100365.16
2023-05-05T21:49:00.632Z,100394.63
2023-05-05T21:51:28.461Z,100402.06
2023-05-05T21:53:58.973Z,100395.97
2023-05-05T21:56:27.766Z,100339.22
2023-05-05T21:58:55.664Z,100404.94
2023-05-05T22:01:23.694Z,100404.53
2023-05-05T22:03:52.259Z,100390.34
2023-05-05T22:06:21.584Z,100404.03
2023-05-05T22:08:50.758Z,100401.09
2023-05-05T22:11:20.474Z,100358.69
2023-05-05T22:13:48.287Z,100366.22
2023-05-05T22:16:17.520Z,100400.25
2023-05-05T22:18:45.977Z,100406.13
2023-05-05T22:21:13.814Z,100405.91
2023-05-05T22:23:42.405Z,100406.53
2023-05-05T22:26:10.797Z,100401.88
2023-05-05T22:28:39.991Z,100408.88
2023-05-05T22:31:08.096Z,100402.31
2023-05-05T22:33:36.180Z,100414.25
2023-05-05T22:36:04.070Z,100394.56
2023-05-05T22:38:31.962Z,100407.34
2023-05-05T22:40:59.882Z,100406.78
2023-05-05T22:43:27.661Z,100299.13
2023-05-05T22:45:56.891Z,100413.41
2023-05-05T22:48:24.716Z,100398.84
2023-05-05T22:50:52.573Z,100410.63
2023-05-05T22:53:20.458Z,100395.88
2023-05-05T22:55:48.382Z,100409.66
2023-05-05T22:58:16.217Z,100383.66
2023-05-05T23:00:44.092Z,100416.31
2023-05-05T23:03:13.723Z,100415.56
2023-05-05T23:05:41.526Z,100411.25
2023-05-05T23:08:09.404Z,100413.75
2023-05-05T23:10:37.227Z,100416.94
2023-05-05T23:13:05.100Z,100417.44
2023-05-05T23:15:32.902Z,100422.56
2023-05-05T23:18:00.834Z,100422.09
2023-05-05T23:20:30.189Z,100416.09
2023-05-05T23:22:58.024Z,100410.63
2023-05-05T23:25:25.880Z,100419.28
2023-05-05T23:27:53.740Z,100411.25
2023-05-05T23:30:21.712Z,100427.16
2023-05-05T23:32:49.620Z,100415.84
2023-05-05T23:35:17.653Z,100417.44
2023-05-05T23:37:46.849Z,100419.19
2023-05-05T23:40:14.725Z,100426.31
2023-05-05T23:42:42.499Z,100424.31
2023-05-05T23:45:11.338Z,100429.94
2023-05-05T23:47:39.464Z,100415.03
2023-05-05T23:50:08.665Z,100392.00
2023-05-05T23:52:36.576Z,100427.16
2023-05-05T23:55:07.399Z,100427.81
2023-05-05T23:57:36.714Z,100427.44
